createdAt,value
2022-11-12T00:01:19.260Z,360.90
2022-11-12T00:03:43.657Z,338.22
2022-11-12T00:06:11.080Z,335.01
2022-11-12T00:08:36.523Z,317.96
2022-11-12T00:11:01.102Z,297.07
2022-11-12T00:13:25.581Z,282.39
2022-11-12T00:15:50.858Z,277.92
2022-11-12T00:18:15.479Z,268.26
2022-11-12T00:20:39.753Z,280.12
2022-11-12T00:23:08.819Z,294.10
2022-11-12T00:25:33.503Z,333.57
2022-11-12T00:28:05.284Z,362.99
2022-11-12T00:30:30.682Z,349.04
2022-11-12T00:32:55.347Z,392.72
2022-11-12T00:35:24.724Z,408.72
2022-11-12T00:37:49.923Z,411.66
2022-11-12T00:40:22.506Z,418.39
2022-11-12T00:42:50.586Z,432.12
2022-11-12T00:45:16.195Z,426.92
2022-11-12T00:47:40.525Z,431.80
2022-11-12T00:50:04.882Z,457.61
2022-11-12T00:52:30.373Z,451.95
2022-11-12T00:54:54.569Z,445.85
2022-11-12T00:57:21.746Z,452.08
2022-11-12T00:59:46.864Z,419.78
2022-11-12T01:02:12.779Z,418.15
2022-11-12T01:04:37.230Z,404.86
2022-11-12T01:07:02.806Z,391.49
2022-11-12T01:09:27.642Z,380.26
2022-11-12T01:11:54.636Z,385.75
2022-11-12T01:14:22.842Z,383.83
2022-11-12T01:16:48.045Z,388.52
2022-11-12T01:19:14.905Z,386.20
2022-11-12T01:21:44.300Z,388.46
2022-11-12T01:24:10.253Z,399.93
2022-11-12T01:26:34.661Z,399.03
2022-11-12T01:29:01.814Z,390.83
2022-11-12T01:31:32.490Z,389.83
2022-11-12T01:34:00.207Z,387.92
2022-11-12T01:36:27.624Z,401.93
2022-11-12T01:38:53.692Z,390.20
2022-11-12T01:41:23.666Z,390.12
2022-11-12T01:43:49.522Z,380.73
2022-11-12T01:46:24.241Z,368.33
2022-11-12T01:48:59.212Z,358.09
2022-11-12T01:51:31.993Z,336.02
2022-11-12T01:54:06.091Z,332.42
2022-11-12T01:56:35.080Z,329.67
2022-11-12T01:59:11.445Z,338.15
2022-11-12T02:01:37.659Z,330.74
2022-11-12T02:04:05.401Z,315.54
2022-11-12T02:06:30.296Z,305.82
2022-11-12T02:08:56.531Z,288.13
2022-11-12T02:11:24.707Z,282.63
2022-11-12T02:14:05.164Z,292.85
2022-11-12T02:16:37.330Z,275.07
2022-11-12T02:19:07.874Z,281.34
2022-11-12T02:21:37.455Z,270.74
2022-11-12T02:24:05.591Z,265.46
2022-11-12T02:26:37.646Z,266.98
2022-11-12T02:29:03.368Z,272.40
2022-11-12T02:31:28.573Z,269.09
2022-11-12T02:33:55.621Z,267.42
2022-11-12T02:36:21.334Z,262.79
2022-11-12T02:38:48.552Z,261.40
2022-11-12T02:41:13.184Z,260.20
2022-11-12T02:43:38.284Z,261.14
2022-11-12T02:46:02.841Z,260.43
2022-11-12T02:48:27.998Z,254.57
2022-11-12T02:50:53.202Z,250.68
2022-11-12T02:53:18.040Z,250.96
2022-11-12T02:55:46.416Z,254.97
2022-11-12T02:58:11.696Z,252.53
2022-11-12T03:00:36.460Z,250.29
2022-11-12T03:03:03.808Z,262.32
2022-11-12T03:05:33.011Z,261.47
2022-11-12T03:08:01.959Z,266.20
2022-11-12T03:10:30.411Z,274.68
2022-11-12T03:13:00.838Z,277.98
2022-11-12T03:15:25.058Z,297.49
2022-11-12T03:17:51.227Z,306.66
2022-11-12T03:20:15.905Z,265.78
2022-11-12T03:22:40.858Z,247.03
2022-11-12T03:25:07.523Z,248.23
2022-11-12T03:27:32.004Z,256.05
2022-11-12T03:29:58.943Z,247.02
2022-11-12T03:32:24.658Z,243.58
2022-11-12T03:34:54.299Z,245.08
2022-11-12T03:37:21.725Z,236.39
2022-11-12T03:39:47.151Z,232.45
2022-11-12T03:42:11.791Z,238.90
2022-11-12T03:44:39.334Z,243.36
2022-11-12T03:47:07.460Z,241.91
2022-11-12T03:49:32.054Z,237.70
2022-11-12T03:51:56.771Z,226.41
2022-11-12T03:54:23.126Z,221.24
2022-11-12T03:56:47.943Z,215.56
2022-11-12T03:59:12.320Z,229.47
2022-11-12T04:01:37.714Z,221.59
2022-11-12T04:04:04.726Z,226.01
2022-11-12T04:06:41.890Z,234.61
2022-11-12T04:09:07.432Z,265.38
2022-11-12T04:11:32.075Z,272.77
2022-11-12T04:13:53.886Z,303.06
2022-11-12T04:16:36.522Z,314.52
2022-11-12T04:19:18.843Z,288.95
2022-11-12T04:21:55.114Z,293.08
2022-11-12T04:24:33.799Z,264.54
2022-11-12T04:26:58.994Z,265.02
2022-11-12T04:29:39.001Z,260.14
2022-11-12T04:32:04.913Z,245.09
2022-11-12T04:34:34.962Z,254.60
2022-11-12T04:36:59.235Z,244.97
2022-11-12T04:39:24.384Z,246.83
2022-11-12T04:42:01.195Z,240.49
2022-11-12T04:44:39.028Z,248.97
2022-11-12T04:47:03.607Z,241.37
2022-11-12T04:49:28.788Z,232.13
2022-11-12T04:52:08.023Z,221.74
2022-11-12T04:54:33.185Z,230.39
2022-11-12T04:57:00.034Z,219.83
2022-11-12T04:59:24.335Z,231.48
2022-11-12T05:01:49.715Z,252.16
2022-11-12T05:04:14.312Z,273.15
2022-11-12T05:06:51.227Z,237.97
2022-11-12T05:09:18.933Z,222.25
2022-11-12T05:11:43.397Z,229.78
2022-11-12T05:14:07.843Z,242.80
2022-11-12T05:16:33.016Z,247.25
2022-11-12T05:18:57.526Z,278.15
2022-11-12T05:21:36.909Z,288.97
2022-11-12T05:24:04.340Z,279.96
2022-11-12T05:26:32.430Z,273.90
2022-11-12T05:28:56.582Z,279.08
2022-11-12T05:31:21.882Z,274.48
2022-11-12T05:33:46.471Z,271.04
2022-11-12T05:36:12.055Z,270.08
2022-11-12T05:38:39.365Z,272.35
2022-11-12T05:41:03.948Z,269.19
2022-11-12T05:43:31.018Z,295.73
2022-11-12T05:45:56.025Z,297.82
2022-11-12T05:48:24.282Z,301.94
2022-11-12T05:51:11.975Z,295.72
2022-11-12T05:53:37.805Z,299.17
2022-11-12T05:56:05.168Z,285.92
2022-11-12T05:58:32.673Z,286.13
2022-11-12T06:00:58.013Z,266.44
2022-11-12T06:03:22.661Z,278.75
2022-11-12T06:05:48.698Z,311.43
2022-11-12T06:08:15.869Z,303.79
2022-11-12T06:10:40.229Z,321.64
2022-11-12T06:13:05.153Z,375.64
2022-11-12T06:15:39.248Z,304.44
2022-11-12T06:18:03.752Z,308.94
2022-11-12T06:20:28.480Z,259.18
2022-11-12T06:22:54.776Z,245.90
2022-11-12T06:25:19.362Z,263.01
2022-11-12T06:27:43.868Z,302.52
2022-11-12T06:30:12.613Z,304.52
2022-11-12T06:32:39.874Z,302.31
2022-11-12T06:35:04.889Z,306.19
2022-11-12T06:37:29.984Z,285.47
2022-11-12T06:39:54.538Z,279.40
2022-11-12T06:42:19.944Z,254.15
2022-11-12T06:44:45.623Z,237.05
2022-11-12T06:47:09.981Z,223.77
2022-11-12T06:49:37.171Z,208.07
2022-11-12T06:52:02.182Z,197.73
2022-11-12T06:54:26.883Z,274.55
2022-11-12T06:56:51.668Z,294.06
2022-11-12T06:59:16.989Z,256.97
2022-11-12T07:01:41.468Z,227.91
2022-11-12T07:04:08.268Z,199.95
2022-11-12T07:06:37.697Z,185.28
2022-11-12T07:09:01.968Z,184.90
2022-11-12T07:11:26.517Z,184.47
2022-11-12T07:13:51.927Z,175.01
2022-11-12T07:16:20.510Z,166.52
2022-11-12T07:18:44.799Z,164.47
2022-11-12T07:21:15.142Z,178.18
2022-11-12T07:23:42.288Z,174.31
2022-11-12T07:26:09.987Z,176.92
2022-11-12T07:28:36.739Z,165.95
2022-11-12T07:31:06.064Z,154.44
2022-11-12T07:33:32.789Z,146.52
2022-11-12T07:36:02.300Z,142.20
2022-11-12T07:38:27.392Z,133.99
2022-11-12T07:40:54.765Z,136.16
2022-11-12T07:43:20.050Z,136.72
2022-11-12T07:45:44.347Z,129.49
2022-11-12T07:48:09.764Z,132.52
2022-11-12T07:50:34.720Z,130.60
2022-11-12T07:53:01.849Z,125.64
2022-11-12T07:55:25.988Z,128.07
2022-11-12T07:57:53.800Z,129.62
2022-11-12T08:00:21.761Z,129.86
2022-11-12T08:02:46.269Z,131.11
2022-11-12T08:05:16.499Z,134.67
2022-11-12T08:07:44.501Z,140.76
2022-11-12T08:10:12.284Z,131.81
2022-11-12T08:12:38.183Z,142.57
2022-11-12T08:15:08.415Z,127.05
2022-11-12T08:17:33.971Z,130.96
2022-11-12T08:23:47.033Z,217.68
2022-11-12T08:26:17.472Z,168.85
2022-11-12T08:28:42.732Z,127.33
2022-11-12T08:31:12.880Z,202.37
2022-11-12T08:33:45.797Z,230.51
2022-11-12T08:36:24.936Z,198.41
2022-11-12T08:38:51.398Z,643.62
2022-11-12T08:41:18.276Z,521.09
2022-11-12T08:43:44.666Z,265.16
2022-11-12T08:46:13.429Z,296.93
2022-11-12T08:48:40.230Z,197.59
2022-11-12T08:51:06.847Z,117.52
2022-11-12T08:53:32.389Z,116.70
2022-11-12T08:56:06.898Z,111.97
2022-11-12T08:58:31.880Z,109.54
2022-11-12T09:00:57.227Z,210.76
2022-11-12T09:03:27.824Z,232.43
2022-11-12T09:05:54.958Z,233.29
2022-11-12T09:08:31.195Z,174.14
2022-11-12T09:10:56.390Z,186.28
2022-11-12T09:13:23.796Z,141.63
2022-11-12T09:15:51.075Z,118.72
2022-11-12T09:18:20.136Z,107.94
2022-11-12T09:20:50.831Z,103.97
2022-11-12T09:23:19.098Z,137.66
2022-11-12T09:25:45.839Z,142.49
2022-11-12T09:28:16.518Z,103.65
2022-11-12T09:30:46.862Z,103.15
2022-11-12T09:33:11.927Z,100.49
2022-11-12T09:35:36.422Z,101.45
2022-11-12T09:38:04.928Z,95.74
2022-11-12T09:40:49.087Z,98.97
2022-11-12T09:43:28.016Z,100.56
2022-11-12T09:46:13.903Z,108.03
2022-11-12T09:48:55.689Z,110.33
2022-11-12T09:51:38.853Z,101.45
2022-11-12T09:54:27.385Z,109.39
2022-11-12T09:56:54.142Z,119.62
2022-11-12T09:59:20.364Z,115.49
2022-11-12T10:02:05.216Z,129.52
2022-11-12T10:05:15.364Z,123.79
2022-11-12T10:08:07.769Z,113.63
2022-11-12T10:10:50.100Z,112.13
2022-11-12T10:13:49.816Z,108.45
2022-11-12T10:16:46.953Z,106.99
2022-11-12T10:19:40.079Z,98.91
2022-11-12T10:22:27.797Z,90.37
2022-11-12T10:24:53.035Z,93.34
2022-11-12T10:27:26.469Z,89.40
2022-11-12T10:30:04.625Z,85.68
2022-11-12T10:32:30.264Z,99.53
2022-11-12T10:34:54.895Z,99.25
2022-11-12T10:37:30.819Z,84.22
2022-11-12T10:39:56.743Z,70.46
2022-11-12T10:42:26.370Z,60.64
2022-11-12T10:44:52.082Z,67.16
2022-11-12T10:47:30.649Z,74.36
2022-11-12T10:50:23.005Z,74.65
2022-11-12T10:53:01.929Z,80.06
2022-11-12T10:55:28.840Z,59.00
2022-11-12T10:58:21.054Z,61.79
2022-11-12T11:00:59.931Z,61.67
2022-11-12T11:03:30.626Z,58.06
2022-11-12T11:06:01.316Z,59.44
2022-11-12T11:08:40.856Z,65.13
2022-11-12T11:11:30.496Z,58.90
2022-11-12T11:14:11.515Z,59.40
2022-11-12T11:16:53.815Z,56.91
2022-11-12T11:19:19.495Z,59.46
2022-11-12T11:22:13.563Z,58.92
2022-11-12T11:24:51.877Z,52.11
2022-11-12T11:27:35.344Z,53.30
2022-11-12T11:30:16.391Z,57.74
2022-11-12T11:33:16.767Z,60.30
2022-11-12T11:36:05.375Z,70.81
2022-11-12T11:38:42.506Z,51.60
2022-11-12T11:41:31.451Z,56.71
2022-11-12T11:44:17.095Z,65.91
2022-11-12T11:47:05.786Z,62.22
2022-11-12T11:50:01.096Z,59.02
2022-11-12T11:52:49.690Z,56.92
2022-11-12T11:55:39.796Z,61.79
2022-11-12T11:58:37.714Z,66.10
2022-11-12T12:01:20.314Z,61.32
2022-11-12T12:04:15.225Z,54.88
2022-11-12T12:06:55.870Z,63.20
2022-11-12T12:09:40.971Z,66.18
2022-11-12T12:12:26.598Z,76.12
2022-11-12T12:15:18.612Z,56.65
2022-11-12T12:18:02.563Z,54.51
2022-11-12T12:20:44.895Z,57.60
2022-11-12T12:23:27.578Z,57.83
2022-11-12T12:26:00.519Z,59.45
2022-11-12T12:28:40.382Z,54.85
2022-11-12T12:31:14.770Z,57.82
2022-11-12T12:33:52.666Z,62.86
2022-11-12T12:36:29.283Z,55.91
2022-11-12T12:39:07.198Z,57.56
2022-11-12T12:41:46.761Z,74.88
2022-11-12T12:44:14.171Z,78.96
2022-11-12T12:46:48.423Z,76.32
2022-11-12T12:49:24.956Z,62.16
2022-11-12T12:51:55.757Z,61.49
2022-11-12T12:55:00.504Z,74.10
2022-11-12T12:57:44.057Z,67.36
2022-11-12T13:00:34.344Z,74.17
2022-11-12T13:03:00.311Z,69.12
2022-11-12T13:05:37.364Z,64.81
2022-11-12T13:08:14.166Z,77.11
2022-11-12T13:10:57.942Z,72.58
2022-11-12T13:13:42.011Z,55.46
2022-11-12T13:16:06.970Z,51.51
2022-11-12T13:19:04.483Z,54.10
2022-11-12T13:21:29.553Z,51.54
2022-11-12T13:24:11.773Z,52.29
2022-11-12T13:26:56.806Z,54.31
2022-11-12T13:29:42.963Z,82.73
2022-11-12T13:32:34.225Z,66.02
2022-11-12T13:35:32.311Z,53.72
2022-11-12T13:38:01.670Z,53.12
2022-11-12T13:40:49.580Z,77.12
2022-11-12T13:43:25.499Z,77.87
2022-11-12T13:46:00.536Z,96.83
2022-11-12T13:48:31.780Z,121.01
2022-11-12T13:51:04.431Z,88.84
2022-11-12T13:53:31.937Z,66.98
2022-11-12T13:56:03.330Z,59.15
2022-11-12T13:58:33.575Z,55.60
2022-11-12T14:01:03.838Z,54.16
2022-11-12T14:03:35.693Z,57.23
2022-11-12T14:06:10.728Z,57.93
2022-11-12T14:09:13.328Z,63.23
2022-11-12T14:12:12.848Z,64.11
2022-11-12T14:15:06.215Z,74.87
2022-11-12T14:17:55.445Z,73.17
2022-11-12T14:20:32.610Z,89.40
2022-11-12T14:22:58.065Z,92.18
2022-11-12T14:25:26.944Z,96.62
2022-11-12T14:27:55.900Z,93.84
2022-11-12T14:30:29.744Z,111.08
2022-11-12T14:33:00.705Z,106.24
2022-11-12T14:35:40.412Z,90.94
2022-11-12T14:38:21.303Z,96.24
2022-11-12T14:40:53.307Z,94.50
2022-11-12T14:43:40.753Z,98.46
2022-11-12T14:46:09.881Z,101.46
2022-11-12T14:48:50.024Z,111.34
2022-11-12T14:51:18.782Z,114.00
2022-11-12T14:53:52.315Z,112.80
2022-11-12T14:56:35.549Z,114.75
2022-11-12T14:59:03.904Z,121.18
2022-11-12T15:02:20.887Z,129.13
2022-11-12T15:04:26.182Z,133.00
2022-11-12T15:06:57.044Z,149.26
2022-11-12T15:09:36.537Z,157.50
2022-11-12T15:12:04.777Z,160.59
2022-11-12T15:14:32.444Z,182.04
2022-11-12T15:16:57.196Z,179.98
2022-11-12T15:19:27.265Z,201.33
2022-11-12T15:21:55.859Z,202.08
2022-11-12T15:24:29.601Z,201.14
2022-11-12T15:26:57.270Z,196.04
2022-11-12T15:29:34.192Z,187.95
2022-11-12T15:32:03.944Z,196.50
2022-11-12T15:34:37.245Z,199.20
2022-11-12T15:37:08.261Z,275.67
2022-11-12T15:39:35.549Z,358.87
2022-11-12T15:42:04.104Z,399.73
2022-11-12T15:44:39.122Z,483.77
2022-11-12T15:47:05.024Z,483.13
2022-11-12T15:49:30.660Z,438.13
2022-11-12T15:51:57.795Z,371.97
2022-11-12T15:54:22.111Z,336.78
2022-11-12T15:56:47.653Z,471.94
2022-11-12T15:59:19.928Z,575.33
2022-11-12T16:01:47.995Z,508.14
2022-11-12T16:04:15.638Z,423.20
2022-11-12T16:06:39.843Z,407.59
2022-11-12T16:09:04.080Z,396.14
2022-11-12T16:11:41.235Z,308.94
2022-11-12T16:14:07.722Z,277.54
2022-11-12T16:16:32.668Z,278.23
2022-11-12T16:18:59.547Z,290.97
2022-11-12T16:21:24.049Z,325.94
2022-11-12T16:23:49.256Z,454.80
2022-11-12T16:26:23.865Z,1479.68
2022-11-12T16:28:48.037Z,962.50
2022-11-12T16:31:13.434Z,845.33
2022-11-12T16:33:37.624Z,955.08
2022-11-12T16:36:17.078Z,1360.07
2022-11-12T16:38:41.928Z,1185.52
2022-11-12T16:41:16.893Z,1311.17
2022-11-12T16:43:42.866Z,1418.01
2022-11-12T16:46:22.278Z,888.43
2022-11-12T16:48:47.443Z,593.49
2022-11-12T16:51:20.451Z,650.80
2022-11-12T16:53:45.517Z,673.73
2022-11-12T16:56:16.640Z,614.90
2022-11-12T16:58:41.518Z,607.40
2022-11-12T17:01:06.154Z,596.15
2022-11-12T17:03:31.162Z,524.75
2022-11-12T17:05:56.082Z,625.17
2022-11-12T17:08:22.840Z,1351.43
2022-11-12T17:10:50.643Z,1797.43
2022-11-12T17:13:17.970Z,2704.28
2022-11-12T17:15:42.933Z,3292.97
2022-11-12T17:18:09.943Z,4542.18
2022-11-12T17:20:35.176Z,5132.94
2022-11-12T17:23:00.597Z,3662.67
2022-11-12T17:25:28.611Z,3253.83
2022-11-12T17:27:52.889Z,2614.96
2022-11-12T17:30:20.366Z,1260.67
2022-11-12T17:33:08.661Z,951.19
2022-11-12T17:35:36.537Z,1385.27
2022-11-12T17:38:00.923Z,1419.96
2022-11-12T17:40:38.715Z,1590.13
2022-11-12T17:43:03.966Z,1508.97
2022-11-12T17:45:30.015Z,1432.57
2022-11-12T17:47:55.980Z,1431.14
2022-11-12T17:50:20.788Z,1285.41
2022-11-12T17:52:45.383Z,1670.24
2022-11-12T17:55:12.367Z,1936.71
2022-11-12T17:57:39.325Z,1234.67
2022-11-12T18:00:03.877Z,992.05
2022-11-12T18:02:29.355Z,865.27
2022-11-12T18:04:58.485Z,949.26
2022-11-12T18:07:22.797Z,857.26
2022-11-12T18:09:48.422Z,843.85
2022-11-12T18:12:12.964Z,888.93
2022-11-12T18:14:40.109Z,732.00
2022-11-12T18:17:14.712Z,784.94
2022-11-12T18:19:40.567Z,796.12
2022-11-12T18:22:06.960Z,848.37
2022-11-12T18:24:31.363Z,883.47
2022-11-12T18:27:03.878Z,920.15
2022-11-12T18:29:31.388Z,969.44
2022-11-12T18:31:58.714Z,1052.21
2022-11-12T18:34:24.046Z,896.67
2022-11-12T18:36:53.343Z,828.02
2022-11-12T18:39:23.662Z,672.44
2022-11-12T18:41:47.850Z,673.25
2022-11-12T18:44:13.194Z,691.16
2022-11-12T18:46:37.571Z,752.92
2022-11-12T18:49:15.235Z,638.54
2022-11-12T18:51:40.667Z,712.61
2022-11-12T18:54:10.885Z,706.43
2022-11-12T18:56:38.083Z,651.50
2022-11-12T18:59:03.010Z,758.83
2022-11-12T19:01:28.096Z,736.51
2022-11-12T19:03:58.132Z,737.01
2022-11-12T19:06:29.836Z,697.21
2022-11-12T19:08:56.385Z,655.01
2022-11-12T19:11:23.480Z,728.27
2022-11-12T19:13:53.679Z,648.80
2022-11-12T19:16:22.815Z,588.09
2022-11-12T19:18:59.031Z,650.61
2022-11-12T19:21:26.546Z,668.34
2022-11-12T19:23:57.530Z,584.07
2022-11-12T19:26:22.006Z,651.88
2022-11-12T19:28:48.295Z,611.96
2022-11-12T19:31:20.056Z,615.92
2022-11-12T19:33:44.544Z,604.58
2022-11-12T19:36:13.370Z,578.61
2022-11-12T19:38:38.816Z,620.56
2022-11-12T19:41:14.669Z,639.63
2022-11-12T19:43:42.335Z,643.33
2022-11-12T19:46:08.975Z,654.75
2022-11-12T19:48:33.650Z,659.04
2022-11-12T19:51:03.352Z,663.67
2022-11-12T19:53:27.345Z,654.99
2022-11-12T19:55:51.575Z,673.58
2022-11-12T19:58:19.508Z,672.73
2022-11-12T20:00:43.876Z,665.03
2022-11-12T20:03:08.350Z,676.34
2022-11-12T20:05:34.124Z,675.68
2022-11-12T20:07:58.769Z,653.64
2022-11-12T20:10:24.852Z,641.97
2022-11-12T20:12:50.547Z,634.94
2022-11-12T20:15:17.998Z,650.34
2022-11-12T20:17:42.444Z,655.83
2022-11-12T20:20:09.520Z,671.78
2022-11-12T20:22:36.306Z,650.74
2022-11-12T20:25:00.869Z,634.33
2022-11-12T20:27:26.056Z,629.34
2022-11-12T20:29:50.218Z,576.68
2022-11-12T20:32:17.422Z,530.54
2022-11-12T20:34:42.593Z,503.29
2022-11-12T20:37:06.965Z,476.04
2022-11-12T20:39:32.714Z,482.79
2022-11-12T20:41:58.038Z,468.22
2022-11-12T20:44:22.580Z,465.45
2022-11-12T20:46:46.866Z,475.81
2022-11-12T20:49:14.685Z,456.60
2022-11-12T20:51:39.923Z,519.01
2022-11-12T20:54:07.724Z,637.41
2022-11-12T20:56:34.209Z,618.99
2022-11-12T20:58:59.164Z,448.36
2022-11-12T21:01:27.255Z,437.91
2022-11-12T21:03:52.557Z,438.71
2022-11-12T21:06:22.903Z,437.71
2022-11-12T21:08:47.565Z,419.95
2022-11-12T21:11:16.509Z,423.70
2022-11-12T21:13:42.456Z,494.78
2022-11-12T21:16:09.224Z,452.66
2022-11-12T21:18:36.119Z,450.66
2022-11-12T21:21:06.234Z,429.35
2022-11-12T21:23:36.696Z,467.06
2022-11-12T21:26:07.338Z,431.38
2022-11-12T21:28:31.566Z,452.19
2022-11-12T21:30:55.848Z,411.40
2022-11-12T21:33:21.354Z,402.24
2022-11-12T21:35:46.169Z,434.79
2022-11-12T21:38:10.287Z,435.37
2022-11-12T21:40:38.336Z,432.15
2022-11-12T21:43:06.999Z,436.62
2022-11-12T21:45:35.328Z,430.57
2022-11-12T21:48:00.843Z,427.75
2022-11-12T21:50:25.090Z,413.56
2022-11-12T21:52:49.328Z,393.05
2022-11-12T21:55:14.663Z,388.74
2022-11-12T21:57:41.841Z,381.47
2022-11-12T22:00:39.767Z,371.57
2022-11-12T22:02:53.314Z,366.64
2022-11-12T22:05:18.232Z,375.39
2022-11-12T22:07:42.925Z,390.99
2022-11-12T22:10:09.838Z,393.80
2022-11-12T22:12:34.232Z,384.96
2022-11-12T22:15:01.209Z,394.44
2022-11-12T22:17:26.463Z,398.54
2022-11-12T22:19:50.693Z,401.32
2022-11-12T22:22:14.925Z,418.73
2022-11-12T22:24:41.722Z,406.09
2022-11-12T22:27:09.326Z,412.26
2022-11-12T22:29:33.869Z,426.10
2022-11-12T22:32:01.694Z,412.16
2022-11-12T22:34:26.165Z,432.73
2022-11-12T22:36:50.725Z,406.63
2022-11-12T22:39:16.026Z,426.07
2022-11-12T22:41:40.720Z,435.40
2022-11-12T22:44:06.411Z,426.22
2022-11-12T22:46:35.050Z,431.11
2022-11-12T22:49:02.111Z,439.10
2022-11-12T22:51:29.488Z,466.24
2022-11-12T22:53:58.584Z,435.07
2022-11-12T22:56:25.297Z,446.62
2022-11-12T22:58:50.611Z,474.67
2022-11-12T23:01:26.036Z,450.84
2022-11-12T23:03:50.546Z,412.86
2022-11-12T23:06:19.350Z,434.41
2022-11-12T23:08:43.859Z,430.25
2022-11-12T23:11:12.827Z,434.40
2022-11-12T23:13:38.505Z,406.93
2022-11-12T23:16:06.222Z,399.81
2022-11-12T23:18:31.628Z,382.67
2022-11-12T23:20:57.101Z,367.23
2022-11-12T23:23:24.091Z,374.06
2022-11-12T23:25:48.770Z,373.07
2022-11-12T23:28:14.540Z,389.02
2022-11-12T23:30:41.218Z,366.07
2022-11-12T23:33:05.964Z,380.39
2022-11-12T23:35:31.868Z,393.08
2022-11-12T23:37:56.433Z,380.19
2022-11-12T23:40:30.995Z,382.55
2022-11-12T23:42:57.515Z,392.87
2022-11-12T23:45:22.059Z,390.38
2022-11-12T23:47:46.448Z,415.07
2022-11-12T23:50:12.339Z,384.46
2022-11-12T23:52:39.602Z,384.24
2022-11-12T23:55:05.284Z,393.15
2022-11-12T23:57:33.145Z,415.63
2022-11-12T23:59:57.641Z,441.74
